sensor_id;sensor_type;location;lat;lon;timestamp;temperature;humidity
7034;DHT22;3558;53.176;10.412;2024-01-15T03:46:40;7.90;83.60
7034;DHT22;3558;53.176;10.412;2024-01-15T03:49:05;7.90;83.60
7034;DHT22;3558;53.176;10.412;2024-01-15T03:51:31;7.90;83.50
7034;DHT22;3558;53.176;10.412;2024-01-15T03:53:56;7.90;83.50
7034;DHT22;3558;53.176;10.412;2024-01-15T03:56:22;7.90;83.50
7034;DHT22;3558;53.176;10.412;2024-01-15T03:58:47;7.90;83.50
7034;DHT22;3558;53.176;10.412;2024-01-15T04:01:13;7.90;83.40
7034;DHT22;3558;53.176;10.412;2024-01-15T04:03:38;7.90;83.50
7034;DHT22;3558;53.176;10.412;2024-01-15T04:06:04;7.90;83.40
7034;DHT22;3558;53.176;10.412;2024-01-15T04:08:30;7.90;83.40
7034;DHT22;3558;53.176;10.412;2024-01-15T04:10:55;7.80;83.50
7034;DHT22;3558;53.176;10.412;2024-01-15T04:13:21;7.80;83.50
7034;DHT22;3558;53.176;10.412;2024-01-15T04:15:46;7.90;83.50
7034;DHT22;3558;53.176;10.412;2024-01-15T04:18:12;7.80;83.60
7034;DHT22;3558;53.176;10.412;2024-01-15T04:20:37;7.80;83.60
7034;DHT22;3558;53.176;10.412;2024-01-15T04:23:04;7.80;83.60
7034;DHT22;3558;53.176;10.412;2024-01-15T04:25:29;7.80;83.60
7034;DHT22;3558;53.176;10.412;2024-01-15T04:27:55;7.80;83.60
7034;DHT22;3558;53.176;10.412;2024-01-15T04:30:20;7.90;83.60
7034;DHT22;3558;53.176;10.412;2024-01-15T04:32:46;7.80;83.50
7034;DHT22;3558;53.176;10.412;2024-01-15T04:35:11;7.80;83.50
7034;DHT22;3558;53.176;10.412;2024-01-15T04:37:38;7.80;83.60
7034;DHT22;3558;53.176;10.412;2024-01-15T04:40:03;7.80;83.60
7034;DHT22;3558;53.176;10.412;2024-01-15T04:42:29;7.90;83.50
7034;DHT22;3558;53.176;10.412;2024-01-15T04:44:55;7.80;83.50
7034;DHT22;3558;53.176;10.412;2024-01-15T04:47:20;7.80;83.60
7034;DHT22;3558;53.176;10.412;2024-01-15T04:49:46;7.80;83.60
7034;DHT22;3558;53.176;10.412;2024-01-15T04:52:11;7.80;83.70
7034;DHT22;3558;53.176;10.412;2024-01-15T04:54:38;7.80;83.70
7034;DHT22;3558;53.176;10.412;2024-01-15T04:57:03;7.80;83.70
7034;DHT22;3558;53.176;10.412;2024-01-15T04:59:29;7.80;83.70
7034;DHT22;3558;53.176;10.412;2024-01-15T05:01:55;7.80;83.70
7034;DHT22;3558;53.176;10.412;2024-01-15T05:04:20;7.80;83.70
7034;DHT22;3558;53.176;10.412;2024-01-15T05:06:46;7.80;83.70
7034;DHT22;3558;53.176;10.412;2024-01-15T05:09:11;7.80;83.60
7034;DHT22;3558;53.176;10.412;2024-01-15T05:11:38;7.80;83.70
7034;DHT22;3558;53.176;10.412;2024-01-15T05:14:04;7.80;83.70
7034;DHT22;3558;53.176;10.412;2024-01-15T05:16:29;7.80;83.70
7034;DHT22;3558;53.176;10.412;2024-01-15T05:18:55;7.80;83.70
7034;DHT22;3558;53.176;10.412;2024-01-15T05:21:20;7.80;83.70
7034;DHT22;3558;53.176;10.412;2024-01-15T05:23:46;7.80;83.70
7034;DHT22;3558;53.176;10.412;2024-01-15T05:26:11;7.90;83.70
7034;DHT22;3558;53.176;10.412;2024-01-15T05:28:37;7.80;83.70
7034;DHT22;3558;53.176;10.412;2024-01-15T05:31:03;7.80;83.70
7034;DHT22;3558;53.176;10.412;2024-01-15T05:33:29;7.70;83.60
7034;DHT22;3558;53.176;10.412;2024-01-15T05:35:55;7.80;83.60
7034;DHT22;3558;53.176;10.412;2024-01-15T05:38:20;7.70;83.70
7034;DHT22;3558;53.176;10.412;2024-01-15T05:40:46;7.80;83.70
7034;DHT22;3558;53.176;10.412;2024-01-15T05:43:11;7.70;83.70
7034;DHT22;3558;53.176;10.412;2024-01-15T05:45:38;7.70;83.80
7034;DHT22;3558;53.176;10.412;2024-01-15T05:48:04;7.70;83.80
7034;DHT22;3558;53.176;10.412;2024-01-15T05:50:29;7.80;83.80
7034;DHT22;3558;53.176;10.412;2024-01-15T05:52:55;7.70;83.70
7034;DHT22;3558;53.176;10.412;2024-01-15T05:55:20;7.70;83.80
7034;DHT22;3558;53.176;10.412;2024-01-15T05:57:46;7.80;83.80
7034;DHT22;3558;53.176;10.412;2024-01-15T06:00:15;7.70;83.70
7034;DHT22;3558;53.176;10.412;2024-01-15T06:02:40;7.70;83.70
7034;DHT22;3558;53.176;10.412;2024-01-15T06:05:06;7.70;83.70
7034;DHT22;3558;53.176;10.412;2024-01-15T06:07:34;7.70;83.70
7034;DHT22;3558;53.176;10.412;2024-01-15T06:09:59;7.70;83.70
7034;DHT22;3558;53.176;10.412;2024-01-15T06:12:25;7.70;83.70
7034;DHT22;3558;53.176;10.412;2024-01-15T06:14:50;7.80;83.80
7034;DHT22;3558;53.176;10.412;2024-01-15T06:17:16;7.70;83.80
7034;DHT22;3558;53.176;10.412;2024-01-15T06:19:41;7.70;83.80
7034;DHT22;3558;53.176;10.412;2024-01-15T06:22:07;7.70;83.80
7034;DHT22;3558;53.176;10.412;2024-01-15T06:24:32;7.70;83.80
7034;DHT22;3558;53.176;10.412;2024-01-15T06:26:58;7.70;83.90
7034;DHT22;3558;53.176;10.412;2024-01-15T06:29:25;7.70;83.90
7034;DHT22;3558;53.176;10.412;2024-01-15T06:31:51;7.70;83.80
7034;DHT22;3558;53.176;10.412;2024-01-15T06:34:17;7.70;83.80
7034;DHT22;3558;53.176;10.412;2024-01-15T06:36:43;7.70;83.80
7034;DHT22;3558;53.176;10.412;2024-01-15T06:39:08;7.70;83.90
7034;DHT22;3558;53.176;10.412;2024-01-15T06:41:35;7.70;83.90
7034;DHT22;3558;53.176;10.412;2024-01-15T06:44:03;7.70;83.80
7034;DHT22;3558;53.176;10.412;2024-01-15T06:46:28;7.70;84.00
7034;DHT22;3558;53.176;10.412;2024-01-15T06:48:54;7.80;84.00
7034;DHT22;3558;53.176;10.412;2024-01-15T06:51:19;7.70;83.90
7034;DHT22;3558;53.176;10.412;2024-01-15T06:53:45;7.70;84.00
7034;DHT22;3558;53.176;10.412;2024-01-15T06:56:10;7.70;84.00
7034;DHT22;3558;53.176;10.412;2024-01-15T06:58:36;7.70;84.00
7034;DHT22;3558;53.176;10.412;2024-01-15T07:01:01;7.70;83.90
7034;DHT22;3558;53.176;10.412;2024-01-15T07:03:27;7.80;83.90
7034;DHT22;3558;53.176;10.412;2024-01-15T07:05:52;7.70;83.90
7034;DHT22;3558;53.176;10.412;2024-01-15T07:08:18;7.70;83.90
7034;DHT22;3558;53.176;10.412;2024-01-15T07:10:43;7.70;83.80
7034;DHT22;3558;53.176;10.412;2024-01-15T07:13:09;7.70;84.00
7034;DHT22;3558;53.176;10.412;2024-01-15T07:15:35;7.70;83.90
7034;DHT22;3558;53.176;10.412;2024-01-15T07:18:00;7.70;83.90
7034;DHT22;3558;53.176;10.412;2024-01-15T07:20:25;7.70;83.90
7034;DHT22;3558;53.176;10.412;2024-01-15T07:22:51;7.70;83.80
7034;DHT22;3558;53.176;10.412;2024-01-15T07:25:16;7.70;83.90
7034;DHT22;3558;53.176;10.412;2024-01-15T07:27:42;7.70;83.90
7034;DHT22;3558;53.176;10.412;2024-01-15T07:30:12;7.70;83.90
7034;DHT22;3558;53.176;10.412;2024-01-15T07:32:37;7.70;84.00
7034;DHT22;3558;53.176;10.412;2024-01-15T07:35:03;7.70;83.90
7034;DHT22;3558;53.176;10.412;2024-01-15T07:37:29;7.70;84.00
7034;DHT22;3558;53.176;10.412;2024-01-15T07:39:55;7.70;84.00
7034;DHT22;3558;53.176;10.412;2024-01-15T07:42:20;7.70;83.90
7034;DHT22;3558;53.176;10.412;2024-01-15T07:44:46;7.70;84.50
7034;DHT22;3558;53.176;10.412;2024-01-15T07:47:12;7.70;84.00
7034;DHT22;3558;53.176;10.412;2024-01-15T07:49:37;7.70;84.00
7034;DHT22;3558;53.176;10.412;2024-01-15T07:52:03;7.70;84.00
7034;DHT22;3558;53.176;10.412;2024-01-15T07:54:31;7.70;84.00
7034;DHT22;3558;53.176;10.412;2024-01-15T07:56:57;7.70;83.90
7034;DHT22;3558;53.176;10.412;2024-01-15T07:59:23;7.70;83.80
7034;DHT22;3558;53.176;10.412;2024-01-15T08:01:49;7.70;83.90
7034;DHT22;3558;53.176;10.412;2024-01-15T08:04:15;7.70;84.00
7034;DHT22;3558;53.176;10.412;2024-01-15T08:06:41;7.70;84.00
7034;DHT22;3558;53.176;10.412;2024-01-15T08:09:06;7.70;84.00
7034;DHT22;3558;53.176;10.412;2024-01-15T08:11:34;7.70;84.00
7034;DHT22;3558;53.176;10.412;2024-01-15T08:13:59;7.70;84.00
7034;DHT22;3558;53.176;10.412;2024-01-15T08:16:25;7.70;84.00
7034;DHT22;3558;53.176;10.412;2024-01-15T08:18:50;7.70;84.00
7034;DHT22;3558;53.176;10.412;2024-01-15T08:21:16;7.70;84.00
7034;DHT22;3558;53.176;10.412;2024-01-15T08:23:41;7.70;84.00
7034;DHT22;3558;53.176;10.412;2024-01-15T08:26:07;7.70;84.00
7034;DHT22;3558;53.176;10.412;2024-01-15T08:28:33;7.70;84.00
7034;DHT22;3558;53.176;10.412;2024-01-15T08:30:58;7.70;84.00
7034;DHT22;3558;53.176;10.412;2024-01-15T08:33:24;7.70;84.00
7034;DHT22;3558;53.176;10.412;2024-01-15T08:35:49;7.70;83.90
7034;DHT22;3558;53.176;10.412;2024-01-15T08:38:15;7.70;83.90
7034;DHT22;3558;53.176;10.412;2024-01-15T08:40:40;7.70;83.90
7034;DHT22;3558;53.176;10.412;2024-01-15T08:43:06;7.70;84.00
7034;DHT22;3558;53.176;10.412;2024-01-15T08:45:32;7.70;84.00
7034;DHT22;3558;53.176;10.412;2024-01-15T08:47:57;7.70;83.90
7034;DHT22;3558;53.176;10.412;2024-01-15T08:50:23;7.70;84.00
7034;DHT22;3558;53.176;10.412;2024-01-15T08:52:48;7.70;84.00
7034;DHT22;3558;53.176;10.412;2024-01-15T08:55:14;7.70;84.00
7034;DHT22;3558;53.176;10.412;2024-01-15T08:57:39;7.70;84.00
7034;DHT22;3558;53.176;10.412;2024-01-15T09:00:05;7.70;84.10
7034;DHT22;3558;53.176;10.412;2024-01-15T09:02:34;7.70;84.00
7034;DHT22;3558;53.176;10.412;2024-01-15T09:05:00;7.70;84.00
7034;DHT22;3558;53.176;10.412;2024-01-15T09:07:25;7.70;84.00
7034;DHT22;3558;53.176;10.412;2024-01-15T09:09:52;7.70;84.00
7034;DHT22;3558;53.176;10.412;2024-01-15T09:12:17;7.70;84.10
7034;DHT22;3558;53.176;10.412;2024-01-15T09:14:44;7.70;84.10
7034;DHT22;3558;53.176;10.412;2024-01-15T09:17:09;7.70;84.10
7034;DHT22;3558;53.176;10.412;2024-01-15T09:19:35;7.70;84.20
7034;DHT22;3558;53.176;10.412;2024-01-15T09:22:00;7.70;84.20
7034;DHT22;3558;53.176;10.412;2024-01-15T09:24:26;7.70;84.20
7034;DHT22;3558;53.176;10.412;2024-01-15T09:26:51;7.70;84.80
7034;DHT22;3558;53.176;10.412;2024-01-15T09:29:17;7.70;84.30
7034;DHT22;3558;53.176;10.412;2024-01-15T09:31:43;7.70;84.30
7034;DHT22;3558;53.176;10.412;2024-01-15T09:34:09;7.70;84.30
7034;DHT22;3558;53.176;10.412;2024-01-15T09:36:39;7.70;84.30
7034;DHT22;3558;53.176;10.412;2024-01-15T09:39:06;7.70;84.10
7034;DHT22;3558;53.176;10.412;2024-01-15T09:41:36;7.70;84.20
7034;DHT22;3558;53.176;10.412;2024-01-15T09:44:03;7.70;84.20
7034;DHT22;3558;53.176;10.412;2024-01-15T09:46:31;7.70;84.20
7034;DHT22;3558;53.176;10.412;2024-01-15T09:48:56;7.90;84.30
7034;DHT22;3558;53.176;10.412;2024-01-15T09:51:23;7.70;84.20
7034;DHT22;3558;53.176;10.412;2024-01-15T09:53:50;7.70;84.20
7034;DHT22;3558;53.176;10.412;2024-01-15T09:56:16;7.70;84.30
7034;DHT22;3558;53.176;10.412;2024-01-15T09:58:42;7.70;84.30
7034;DHT22;3558;53.176;10.412;2024-01-15T10:01:08;7.70;84.30
7034;DHT22;3558;53.176;10.412;2024-01-15T10:03:34;7.70;84.30
7034;DHT22;3558;53.176;10.412;2024-01-15T10:06:00;7.70;84.30
7034;DHT22;3558;53.176;10.412;2024-01-15T10:08:25;7.80;84.40
7034;DHT22;3558;53.176;10.412;2024-01-15T10:10:51;7.80;84.30
7034;DHT22;3558;53.176;10.412;2024-01-15T10:13:17;7.80;84.30
7034;DHT22;3558;53.176;10.412;2024-01-15T10:15:45;7.70;84.40
7034;DHT22;3558;53.176;10.412;2024-01-15T10:18:12;7.80;84.60
7034;DHT22;3558;53.176;10.412;2024-01-15T10:20:39;7.80;84.60
7034;DHT22;3558;53.176;10.412;2024-01-15T10:23:04;7.80;84.60
7034;DHT22;3558;53.176;10.412;2024-01-15T10:25:30;7.80;84.70
7034;DHT22;3558;53.176;10.412;2024-01-15T10:28:00;7.80;84.70
7034;DHT22;3558;53.176;10.412;2024-01-15T10:30:26;7.80;84.80
7034;DHT22;3558;53.176;10.412;2024-01-15T10:33:02;7.90;84.90
7034;DHT22;3558;53.176;10.412;2024-01-15T10:35:33;7.90;84.90
7034;DHT22;3558;53.176;10.412;2024-01-15T10:38:00;7.90;85.00
7034;DHT22;3558;53.176;10.412;2024-01-15T10:40:26;7.90;85.00
7034;DHT22;3558;53.176;10.412;2024-01-15T10:42:51;7.90;85.00
7034;DHT22;3558;53.176;10.412;2024-01-15T10:45:17;7.90;84.90
7034;DHT22;3558;53.176;10.412;2024-01-15T10:47:43;7.90;84.80
7034;DHT22;3558;53.176;10.412;2024-01-15T10:50:09;7.90;84.70
7034;DHT22;3558;53.176;10.412;2024-01-15T10:52:36;7.90;84.60
7034;DHT22;3558;53.176;10.412;2024-01-15T10:55:03;7.90;84.50
7034;DHT22;3558;53.176;10.412;2024-01-15T10:57:29;7.90;84.50
7034;DHT22;3558;53.176;10.412;2024-01-15T10:59:55;7.90;84.40
7034;DHT22;3558;53.176;10.412;2024-01-15T11:02:20;7.90;84.40
7034;DHT22;3558;53.176;10.412;2024-01-15T11:04:46;7.90;84.60
7034;DHT22;3558;53.176;10.412;2024-01-15T11:07:13;7.90;84.70
7034;DHT22;3558;53.176;10.412;2024-01-15T11:09:39;7.90;84.50
7034;DHT22;3558;53.176;10.412;2024-01-15T11:12:10;7.90;84.50
7034;DHT22;3558;53.176;10.412;2024-01-15T11:14:47;7.90;84.40
7034;DHT22;3558;53.176;10.412;2024-01-15T11:17:13;7.90;84.40
7034;DHT22;3558;53.176;10.412;2024-01-15T11:19:43;8.00;84.40
7034;DHT22;3558;53.176;10.412;2024-01-15T11:22:09;7.90;84.30
7034;DHT22;3558;53.176;10.412;2024-01-15T11:24:39;7.90;84.20
7034;DHT22;3558;53.176;10.412;2024-01-15T11:27:06;7.90;84.20
7034;DHT22;3558;53.176;10.412;2024-01-15T11:29:34;7.90;84.20
7034;DHT22;3558;53.176;10.412;2024-01-15T11:32:18;7.90;84.10
7034;DHT22;3558;53.176;10.412;2024-01-15T11:34:55;7.90;84.10
7034;DHT22;3558;53.176;10.412;2024-01-15T11:37:25;7.90;84.20
7034;DHT22;3558;53.176;10.412;2024-01-15T11:39:53;7.90;84.20
7034;DHT22;3558;53.176;10.412;2024-01-15T11:42:20;7.90;84.30
7034;DHT22;3558;53.176;10.412;2024-01-15T11:44:46;7.90;84.30
7034;DHT22;3558;53.176;10.412;2024-01-15T11:47:12;7.90;84.30
7034;DHT22;3558;53.176;10.412;2024-01-15T11:49:59;7.90;84.30
7034;DHT22;3558;53.176;10.412;2024-01-15T11:52:38;7.90;84.40
7034;DHT22;3558;53.176;10.412;2024-01-15T11:55:30;7.90;84.40
7034;DHT22;3558;53.176;10.412;2024-01-15T11:57:57;7.90;84.60
7034;DHT22;3558;53.176;10.412;2024-01-15T12:00:24;7.80;84.50
7034;DHT22;3558;53.176;10.412;2024-01-15T12:02:50;7.90;84.50
7034;DHT22;3558;53.176;10.412;2024-01-15T12:05:19;7.90;84.50
7034;DHT22;3558;53.176;10.412;2024-01-15T12:07:47;7.90;84.50
7034;DHT22;3558;53.176;10.412;2024-01-15T12:10:19;7.90;84.50
7034;DHT22;3558;53.176;10.412;2024-01-15T12:12:59;7.90;84.60
7034;DHT22;3558;53.176;10.412;2024-01-15T12:15:28;7.90;84.60
7034;DHT22;3558;53.176;10.412;2024-01-15T12:18:01;7.90;84.50
7034;DHT22;3558;53.176;10.412;2024-01-15T12:20:29;7.90;84.30
7034;DHT22;3558;53.176;10.412;2024-01-15T12:22:55;7.90;84.20
7034;DHT22;3558;53.176;10.412;2024-01-15T12:25:21;7.90;84.10
7034;DHT22;3558;53.176;10.412;2024-01-15T12:27:47;7.90;84.10
7034;DHT22;3558;53.176;10.412;2024-01-15T12:30:13;7.90;84.10
7034;DHT22;3558;53.176;10.412;2024-01-15T12:32:42;7.90;84.00
7034;DHT22;3558;53.176;10.412;2024-01-15T12:35:11;7.90;84.10
7034;DHT22;3558;53.176;10.412;2024-01-15T12:37:39;7.90;84.10
7034;DHT22;3558;53.176;10.412;2024-01-15T12:40:05;7.90;84.10
7034;DHT22;3558;53.176;10.412;2024-01-15T12:42:39;7.90;84.00
7034;DHT22;3558;53.176;10.412;2024-01-15T12:45:05;7.80;83.90
7034;DHT22;3558;53.176;10.412;2024-01-15T12:47:32;7.90;83.90
7034;DHT22;3558;53.176;10.412;2024-01-15T12:49:58;7.80;83.90
7034;DHT22;3558;53.176;10.412;2024-01-15T12:52:29;7.80;83.90
7034;DHT22;3558;53.176;10.412;2024-01-15T12:54:55;7.90;83.90
7034;DHT22;3558;53.176;10.412;2024-01-15T12:57:21;7.80;83.70
7034;DHT22;3558;53.176;10.412;2024-01-15T12:59:48;7.90;83.80
7034;DHT22;3558;53.176;10.412;2024-01-15T13:02:15;7.90;83.80
7034;DHT22;3558;53.176;10.412;2024-01-15T13:04:42;7.90;83.70
7034;DHT22;3558;53.176;10.412;2024-01-15T13:07:07;7.90;83.80
7034;DHT22;3558;53.176;10.412;2024-01-15T13:09:34;7.80;83.70
7034;DHT22;3558;53.176;10.412;2024-01-15T13:12:00;7.80;83.80
7034;DHT22;3558;53.176;10.412;2024-01-15T13:14:26;7.80;83.80
7034;DHT22;3558;53.176;10.412;2024-01-15T13:16:52;7.90;83.80
7034;DHT22;3558;53.176;10.412;2024-01-15T13:19:19;7.80;83.60
7034;DHT22;3558;53.176;10.412;2024-01-15T13:21:44;7.90;83.60
7034;DHT22;3558;53.176;10.412;2024-01-15T13:24:10;7.90;83.60
7034;DHT22;3558;53.176;10.412;2024-01-15T13:26:36;7.90;83.60
7034;DHT22;3558;53.176;10.412;2024-01-15T13:29:02;7.90;83.70
7034;DHT22;3558;53.176;10.412;2024-01-15T13:31:29;7.80;83.70
7034;DHT22;3558;53.176;10.412;2024-01-15T13:33:54;7.80;83.60
7034;DHT22;3558;53.176;10.412;2024-01-15T13:36:21;7.80;83.60
7034;DHT22;3558;53.176;10.412;2024-01-15T13:38:51;7.90;83.60
7034;DHT22;3558;53.176;10.412;2024-01-15T13:41:18;7.80;83.60
7034;DHT22;3558;53.176;10.412;2024-01-15T13:43:53;7.80;83.60
7034;DHT22;3558;53.176;10.412;2024-01-15T13:46:19;7.80;84.00
7034;DHT22;3558;53.176;10.412;2024-01-15T13:48:46;7.80;83.50
7034;DHT22;3558;53.176;10.412;2024-01-15T13:51:11;7.80;83.50
7034;DHT22;3558;53.176;10.412;2024-01-15T13:53:40;7.90;83.50
7034;DHT22;3558;53.176;10.412;2024-01-15T13:56:06;7.80;83.50
7034;DHT22;3558;53.176;10.412;2024-01-15T13:58:32;7.80;83.50
7034;DHT22;3558;53.176;10.412;2024-01-15T14:00:59;7.90;83.60
7034;DHT22;3558;53.176;10.412;2024-01-15T14:03:24;7.90;83.60
7034;DHT22;3558;53.176;10.412;2024-01-15T14:05:51;7.90;83.50
7034;DHT22;3558;53.176;10.412;2024-01-15T14:08:17;7.80;83.50
7034;DHT22;3558;53.176;10.412;2024-01-15T14:10:42;7.90;83.50
7034;DHT22;3558;53.176;10.412;2024-01-15T14:13:08;7.80;83.50
7034;DHT22;3558;53.176;10.412;2024-01-15T14:15:34;7.80;83.50
7034;DHT22;3558;53.176;10.412;2024-01-15T14:18:00;7.90;83.60
7034;DHT22;3558;53.176;10.412;2024-01-15T14:20:26;7.80;83.50
7034;DHT22;3558;53.176;10.412;2024-01-15T14:22:52;7.80;83.50
7034;DHT22;3558;53.176;10.412;2024-01-15T14:25:17;7.90;83.50
7034;DHT22;3558;53.176;10.412;2024-01-15T14:27:43;7.80;83.50
7034;DHT22;3558;53.176;10.412;2024-01-15T14:30:08;7.80;83.50
7034;DHT22;3558;53.176;10.412;2024-01-15T14:32:34;7.80;84.10
7034;DHT22;3558;53.176;10.412;2024-01-15T14:35:00;7.70;84.30
7034;DHT22;3558;53.176;10.412;2024-01-15T14:37:25;7.80;84.50
7034;DHT22;3558;53.176;10.412;2024-01-15T14:39:51;7.90;83.90
7034;DHT22;3558;53.176;10.412;2024-01-15T14:42:17;7.80;83.70
7034;DHT22;3558;53.176;10.412;2024-01-15T14:44:43;7.80;83.60
7034;DHT22;3558;53.176;10.412;2024-01-15T14:47:08;7.80;83.50
7034;DHT22;3558;53.176;10.412;2024-01-15T14:49:34;7.80;83.60
7034;DHT22;3558;53.176;10.412;2024-01-15T14:52:00;7.80;83.50
7034;DHT22;3558;53.176;10.412;2024-01-15T14:54:25;7.80;83.50
7034;DHT22;3558;53.176;10.412;2024-01-15T14:56:51;7.80;83.40
7034;DHT22;3558;53.176;10.412;2024-01-15T14:59:17;7.90;83.50
7034;DHT22;3558;53.176;10.412;2024-01-15T15:01:42;7.80;83.40
7034;DHT22;3558;53.176;10.412;2024-01-15T15:04:08;7.80;83.30
7034;DHT22;3558;53.176;10.412;2024-01-15T15:06:34;7.80;83.40
7034;DHT22;3558;53.176;10.412;2024-01-15T15:08:59;7.80;83.30
7034;DHT22;3558;53.176;10.412;2024-01-15T15:11:26;7.80;83.40
7034;DHT22;3558;53.176;10.412;2024-01-15T15:13:52;7.80;83.40
7034;DHT22;3558;53.176;10.412;2024-01-15T15:16:17;7.80;83.40
7034;DHT22;3558;53.176;10.412;2024-01-15T15:18:42;7.80;83.40
7034;DHT22;3558;53.176;10.412;2024-01-15T15:21:09;7.80;83.40
7034;DHT22;3558;53.176;10.412;2024-01-15T15:23:35;7.80;83.30
7034;DHT22;3558;53.176;10.412;2024-01-15T15:26:00;7.80;83.20
7034;DHT22;3558;53.176;10.412;2024-01-15T15:28:26;7.80;83.20
7034;DHT22;3558;53.176;10.412;2024-01-15T15:30:52;7.80;83.30
7034;DHT22;3558;53.176;10.412;2024-01-15T15:33:17;7.80;83.40
7034;DHT22;3558;53.176;10.412;2024-01-15T15:35:44;7.80;83.40
7034;DHT22;3558;53.176;10.412;2024-01-15T15:38:09;7.80;83.30
7034;DHT22;3558;53.176;10.412;2024-01-15T15:40:35;7.80;83.30
7034;DHT22;3558;53.176;10.412;2024-01-15T15:43:00;7.80;83.20
7034;DHT22;3558;53.176;10.412;2024-01-15T15:45:26;7.80;83.20
7034;DHT22;3558;53.176;10.412;2024-01-15T15:47:52;7.80;83.30
7034;DHT22;3558;53.176;10.412;2024-01-15T15:50:17;7.80;83.80
7034;DHT22;3558;53.176;10.412;2024-01-15T15:52:42;7.80;83.30
7034;DHT22;3558;53.176;10.412;2024-01-15T15:55:08;7.80;83.30
7034;DHT22;3558;53.176;10.412;2024-01-15T15:57:34;7.80;83.30
7034;DHT22;3558;53.176;10.412;2024-01-15T15:59:59;7.80;83.30
7034;DHT22;3558;53.176;10.412;2024-01-15T16:02:25;7.70;83.40
7034;DHT22;3558;53.176;10.412;2024-01-15T16:04:50;7.70;83.70
7034;DHT22;3558;53.176;10.412;2024-01-15T16:07:16;7.70;83.80
7034;DHT22;3558;53.176;10.412;2024-01-15T16:09:41;7.70;83.80
7034;DHT22;3558;53.176;10.412;2024-01-15T16:12:07;7.70;83.60
7034;DHT22;3558;53.176;10.412;2024-01-15T16:14:37;7.80;83.50
7034;DHT22;3558;53.176;10.412;2024-01-15T16:17:02;7.70;83.50
7034;DHT22;3558;53.176;10.412;2024-01-15T16:19:28;7.70;83.40
7034;DHT22;3558;53.176;10.412;2024-01-15T16:21:54;7.80;83.40
7034;DHT22;3558;53.176;10.412;2024-01-15T16:24:20;7.70;83.40
7034;DHT22;3558;53.176;10.412;2024-01-15T16:26:47;7.80;83.40
7034;DHT22;3558;53.176;10.412;2024-01-15T16:29:12;7.70;83.40
7034;DHT22;3558;53.176;10.412;2024-01-15T16:31:38;7.70;83.40
7034;DHT22;3558;53.176;10.412;2024-01-15T16:34:03;7.70;83.40
7034;DHT22;3558;53.176;10.412;2024-01-15T16:36:29;7.70;83.30
7034;DHT22;3558;53.176;10.412;2024-01-15T16:38:54;7.70;83.30
7034;DHT22;3558;53.176;10.412;2024-01-15T16:41:20;7.70;83.30
7034;DHT22;3558;53.176;10.412;2024-01-15T16:43:46;7.70;83.30
7034;DHT22;3558;53.176;10.412;2024-01-15T16:46:12;7.70;83.30
7034;DHT22;3558;53.176;10.412;2024-01-15T16:48:37;7.70;83.30
7034;DHT22;3558;53.176;10.412;2024-01-15T16:51:03;7.70;83.30
7034;DHT22;3558;53.176;10.412;2024-01-15T16:53:28;7.70;83.30
7034;DHT22;3558;53.176;10.412;2024-01-15T16:55:54;7.70;83.30
7034;DHT22;3558;53.176;10.412;2024-01-15T16:58:19;7.70;83.30
7034;DHT22;3558;53.176;10.412;2024-01-15T17:00:48;7.70;83.30
7034;DHT22;3558;53.176;10.412;2024-01-15T17:03:13;7.70;83.30
7034;DHT22;3558;53.176;10.412;2024-01-15T17:05:39;7.70;83.30
7034;DHT22;3558;53.176;10.412;2024-01-15T17:08:05;7.70;83.30
7034;DHT22;3558;53.176;10.412;2024-01-15T17:10:31;7.70;83.40
7034;DHT22;3558;53.176;10.412;2024-01-15T17:12:58;7.70;83.40
7034;DHT22;3558;53.176;10.412;2024-01-15T17:15:25;7.70;83.30
7034;DHT22;3558;53.176;10.412;2024-01-15T17:17:50;7.70;83.50
7034;DHT22;3558;53.176;10.412;2024-01-15T17:20:16;7.70;83.30
7034;DHT22;3558;53.176;10.412;2024-01-15T17:22:41;7.70;83.40
7034;DHT22;3558;53.176;10.412;2024-01-15T17:25:07;7.70;83.30
7034;DHT22;3558;53.176;10.412;2024-01-15T17:27:33;7.70;83.30
7034;DHT22;3558;53.176;10.412;2024-01-15T17:29:58;7.70;83.40
7034;DHT22;3558;53.176;10.412;2024-01-15T17:32:24;7.70;83.40
7034;DHT22;3558;53.176;10.412;2024-01-15T17:34:50;7.60;83.30
7034;DHT22;3558;53.176;10.412;2024-01-15T17:37:15;7.70;83.30
7034;DHT22;3558;53.176;10.412;2024-01-15T17:39:41;7.70;83.40
7034;DHT22;3558;53.176;10.412;2024-01-15T17:42:08;7.70;83.40
7034;DHT22;3558;53.176;10.412;2024-01-15T17:44:34;7.70;83.30
7034;DHT22;3558;53.176;10.412;2024-01-15T17:46:59;7.70;83.20
7034;DHT22;3558;53.176;10.412;2024-01-15T17:49:25;7.70;83.30
7034;DHT22;3558;53.176;10.412;2024-01-15T17:51:52;7.70;83.20
7034;DHT22;3558;53.176;10.412;2024-01-15T17:54:17;7.70;83.20
7034;DHT22;3558;53.176;10.412;2024-01-15T17:56:44;7.70;83.20
7034;DHT22;3558;53.176;10.412;2024-01-15T17:59:09;7.70;83.30
7034;DHT22;3558;53.176;10.412;2024-01-15T18:01:34;7.70;83.20
7034;DHT22;3558;53.176;10.412;2024-01-15T18:04:01;7.70;83.30
7034;DHT22;3558;53.176;10.412;2024-01-15T18:06:29;7.70;83.30
7034;DHT22;3558;53.176;10.412;2024-01-15T18:08:55;7.70;83.30
7034;DHT22;3558;53.176;10.412;2024-01-15T18:11:21;7.70;83.30
7034;DHT22;3558;53.176;10.412;2024-01-15T18:13:46;7.70;83.30
7034;DHT22;3558;53.176;10.412;2024-01-15T18:16:12;7.70;83.30
7034;DHT22;3558;53.176;10.412;2024-01-15T18:18:38;7.70;83.10
7034;DHT22;3558;53.176;10.412;2024-01-15T18:21:04;7.70;83.20
7034;DHT22;3558;53.176;10.412;2024-01-15T18:23:30;7.70;83.10
7034;DHT22;3558;53.176;10.412;2024-01-15T18:25:55;7.70;83.10
7034;DHT22;3558;53.176;10.412;2024-01-15T18:28:20;7.70;83.10
7034;DHT22;3558;53.176;10.412;2024-01-15T18:30:46;7.60;83.30
7034;DHT22;3558;53.176;10.412;2024-01-15T18:33:11;7.70;83.30
7034;DHT22;3558;53.176;10.412;2024-01-15T18:35:38;7.70;83.30
7034;DHT22;3558;53.176;10.412;2024-01-15T18:38:04;7.60;83.20
7034;DHT22;3558;53.176;10.412;2024-01-15T18:40:31;7.60;83.30
7034;DHT22;3558;53.176;10.412;2024-01-15T18:43:00;7.60;83.20
7034;DHT22;3558;53.176;10.412;2024-01-15T18:45:26;7.60;83.20
7034;DHT22;3558;53.176;10.412;2024-01-15T18:47:52;7.70;83.30
7034;DHT22;3558;53.176;10.412;2024-01-15T18:50:17;7.60;83.20
7034;DHT22;3558;53.176;10.412;2024-01-15T18:52:43;7.70;83.20
7034;DHT22;3558;53.176;10.412;2024-01-15T18:55:08;7.60;83.20
7034;DHT22;3558;53.176;10.412;2024-01-15T18:57:39;7.60;83.20
7034;DHT22;3558;53.176;10.412;2024-01-15T19:00:05;7.60;83.30
7034;DHT22;3558;53.176;10.412;2024-01-15T19:02:31;7.60;83.50
7034;DHT22;3558;53.176;10.412;2024-01-15T19:04:56;7.60;83.30
7034;DHT22;3558;53.176;10.412;2024-01-15T19:07:22;7.60;83.30
7034;DHT22;3558;53.176;10.412;2024-01-15T19:09:47;7.70;83.30
7034;DHT22;3558;53.176;10.412;2024-01-15T19:12:13;7.70;83.80
7034;DHT22;3558;53.176;10.412;2024-01-15T19:14:38;7.60;83.10
7034;DHT22;3558;53.176;10.412;2024-01-15T19:17:03;7.70;83.10
7034;DHT22;3558;53.176;10.412;2024-01-15T19:19:29;7.70;83.10
7034;DHT22;3558;53.176;10.412;2024-01-15T19:21:56;7.70;83.10
7034;DHT22;3558;53.176;10.412;2024-01-15T19:24:22;7.60;83.00
7034;DHT22;3558;53.176;10.412;2024-01-15T19:26:48;7.60;83.00
7034;DHT22;3558;53.176;10.412;2024-01-15T19:29:13;7.60;83.10
7034;DHT22;3558;53.176;10.412;2024-01-15T19:31:39;7.60;83.10
7034;DHT22;3558;53.176;10.412;2024-01-15T19:34:04;7.60;83.10
7034;DHT22;3558;53.176;10.412;2024-01-15T19:36:30;7.60;83.00
7034;DHT22;3558;53.176;10.412;2024-01-15T19:38:56;7.60;83.00
7034;DHT22;3558;53.176;10.412;2024-01-15T19:41:22;7.60;83.00